Time;durP1;ratioP1;P1;durP2;ratioP2;P2;SDS_P1;SDS_P2;PMS_P1;PMS_P2;Temp;Humidity;BMP_temperature;BMP_pressure;BME280_temperature;BME280_humidity;BME280_pressure;Samples;Min_cycle;Max_cycle;Signal;HPM_P1;HPM_P2
2022/09/14 00:01:49;;;;;;;53.97;51.15;;;;;;;22.51;54.14;100741.03;5049973;28;20063;-71
2022/09/14 00:04:17;;;;;;;52.50;49.80;;;;;;;22.47;54.00;100741.63;5049997;28;20075;-72
2022/09/14 00:06:43;;;;;;;51.10;48.50;;;;;;;22.46;54.37;100748.28;5047996;28;20535;-72
2022/09/14 00:09:16;;;;;;;50.78;47.78;;;;;;;22.45;54.05;100745.84;5029201;28;20025;-77
2022/09/14 00:11:41;;;;;;;50.47;47.42;;;;;;;22.42;54.04;100746.50;5045800;28;20440;-74
2022/09/14 00:14:06;;;;;;;53.60;50.33;;;;;;;22.40;54.25;100743.25;5034834;28;20060;-73
2022/09/14 00:16:36;;;;;;;49.85;47.28;;;;;;;22.38;54.11;100746.34;5049669;28;20025;-73
2022/09/14 00:19:04;;;;;;;52.72;49.95;;;;;;;22.37;54.12;100746.66;5052930;28;20055;-73
2022/09/14 00:21:37;;;;;;;49.85;47.15;;;;;;;22.35;54.40;100748.91;5054118;28;20488;-73
2022/09/14 00:24:04;;;;;;;51.40;48.60;;;;;;;22.32;54.22;100744.88;5037038;28;20500;-74
2022/09/14 00:26:30;;;;;;;47.03;44.72;;;;;;;22.30;54.41;100736.16;5035372;28;20383;-73
2022/09/14 00:28:57;;;;;;;51.97;49.33;;;;;;;22.28;54.10;100738.41;5036441;28;20493;-74
2022/09/14 00:31:23;;;;;;;49.00;46.30;;;;;;;22.27;54.25;100738.72;5034232;28;20047;-74
2022/09/14 00:33:50;;;;;;;55.08;52.03;;;;;;;22.24;54.39;100729.97;5033952;28;20428;-72
2022/09/14 00:36:22;;;;;;;52.08;49.40;;;;;;;22.22;54.10;100721.22;5033416;28;20232;-72
2022/09/14 00:38:48;;;;;;;51.17;48.67;;;;;;;22.21;54.28;100721.56;5034824;28;20478;-72
2022/09/14 00:41:20;;;;;;;49.75;47.13;;;;;;;22.18;53.92;100724.94;5043845;28;20061;-72
2022/09/14 00:44:02;;;;;;;48.83;46.42;;;;;;;22.15;53.94;100717.28;5053290;28;20024;-73
2022/09/14 00:46:30;;;;;;;49.55;46.85;;;;;;;22.13;54.46;100712.13;5053579;28;20083;-73
2022/09/14 00:48:59;;;;;;;47.78;45.28;;;;;;;22.12;53.93;100709.69;5053235;28;20029;-73
2022/09/14 00:51:24;;;;;;;;;;;;;;;22.09;53.87;100708.41;5054439;28;20037;-71
2022/09/14 00:53:50;;;;;;;48.72;46.42;;;;;;;22.06;54.11;100694.47;5054415;28;20353;-72
2022/09/14 00:56:16;;;;;;;49.13;46.53;;;;;;;22.03;53.81;100679.44;5052368;28;20653;-72
2022/09/14 00:58:48;;;;;;;48.60;46.20;;;;;;;22.00;53.88;100675.38;5053295;28;20025;-72
2022/09/14 01:01:14;;;;;;;50.15;47.65;;;;;;;21.99;54.31;100667.44;5039470;28;20469;-72
2022/09/14 01:03:39;;;;;;;48.65;46.28;;;;;;;21.97;54.16;100672.44;5034821;28;20071;-73
2022/09/14 01:06:34;;;;;;;49.47;46.92;;;;;;;21.95;54.00;100670.03;5038474;28;20060;-72
2022/09/14 01:09:32;;;;;;;45.40;42.97;;;;;;;21.94;54.23;100667.59;5022680;28;20041;-73
2022/09/14 01:12:23;;;;;;;46.08;43.83;;;;;;;21.90;54.12;100672.94;5039983;28;20072;-74
2022/09/14 01:15:08;;;;;;;46.80;44.22;;;;;;;21.88;54.05;100666.16;5029111;28;20087;-71
2022/09/14 01:17:40;;;;;;;48.70;46.13;;;;;;;21.86;54.22;100654.66;5050301;28;20040;-72
2022/09/14 01:20:38;;;;;;;48.85;46.35;;;;;;;21.83;54.37;100658.84;5044622;28;20061;-73
2022/09/14 01:23:42;;;;;;;47.03;44.53;;;;;;;21.80;54.55;100659.50;5053588;28;20044;-72
2022/09/14 01:26:32;;;;;;;46.83;43.75;;;;;;;21.78;54.39;100665.31;5052401;28;20024;-73
2022/09/14 01:29:07;;;;;;;49.08;46.67;;;;;;;21.75;54.41;100668.69;5041519;28;20034;-73
2022/09/14 01:31:51;;;;;;;49.05;46.40;;;;;;;21.74;53.97;100675.31;5034123;28;20037;-74
2022/09/14 01:35:05;;;;;;;48.50;46.05;;;;;;;21.71;54.45;100677.91;5036199;28;20116;-75
2022/09/14 01:37:54;;;;;;;47.47;44.88;;;;;;;21.68;54.07;100668.34;5002531;28;20132;-72
2022/09/14 01:40:34;;;;;;;48.33;45.67;;;;;;;21.66;54.46;100667.06;5036721;28;20061;-72
2022/09/14 01:43:14;;;;;;;46.22;43.83;;;;;;;21.65;54.26;100666.25;5041031;28;20041;-72
2022/09/14 01:45:50;;;;;;;46.20;43.80;;;;;;;21.62;54.38;100661.41;5037001;28;20036;-72
2022/09/14 01:48:21;;;;;;;49.17;46.47;;;;;;;21.61;54.54;100657.81;5045532;28;20039;-73
2022/09/14 01:50:51;;;;;;;50.13;47.58;;;;;;;21.59;54.39;100664.75;5057339;28;20036;-72
2022/09/14 01:53:37;;;;;;;49.10;46.33;;;;;;;21.57;54.40;100662.34;5048547;28;20036;-72
2022/09/14 01:56:19;;;;;;;46.30;43.75;;;;;;;21.55;54.03;100648.13;5052001;28;20079;-77
2022/09/14 01:58:55;;;;;;;49.08;46.67;;;;;;;21.53;54.41;100646.81;5042319;28;20038;-72
2022/09/14 02:01:29;;;;;;;46.97;43.80;;;;;;;21.50;54.46;100642.75;5033244;28;20462;-71
2022/09/14 02:04:01;;;;;;;46.78;44.13;;;;;;;21.48;54.48;100644.22;5041955;28;20049;-72
2022/09/14 02:06:39;;;;;;;46.05;43.70;;;;;;;21.47;54.60;100643.41;5050590;28;20107;-72
2022/09/14 02:09:08;;;;;;;45.47;42.97;;;;;;;21.46;54.18;100651.97;5051069;28;20090;-75
2022/09/14 02:11:33;;;;;;;46.30;44.00;;;;;;;21.44;54.03;100646.78;5033525;28;20025;-72
2022/09/14 02:13:58;;;;;;;46.65;44.15;;;;;;;21.43;54.34;100660.84;5039612;28;20499;-71
2022/09/14 02:16:24;;;;;;;48.90;46.17;;;;;;;21.40;54.22;100654.03;5047163;28;20037;-72
2022/09/14 02:18:50;;;;;;;45.47;42.88;;;;;;;21.39;54.14;100663.41;5042486;28;20067;-72
2022/09/14 02:21:20;;;;;;;49.65;46.85;;;;;;;21.37;54.31;100660.16;5033526;28;20088;-71
2022/09/14 02:23:47;;;;;;;46.00;43.38;;;;;;;21.36;54.48;100672.25;5034923;28;20061;-73
2022/09/14 02:26:14;;;;;;;46.22;43.92;;;;;;;21.35;54.60;100662.41;5036695;28;20029;-73
2022/09/14 02:28:40;;;;;;;47.60;44.95;;;;;;;21.34;54.52;100658.84;5050469;28;20599;-73
2022/09/14 02:31:35;;;;;;;48.63;46.17;;;;;;;21.32;54.59;100657.53;5034819;28;20038;-75
2022/09/14 02:34:25;;;;;;;46.38;43.72;;;;;;;21.29;54.29;100656.25;5050555;28;20032;-71
2022/09/14 02:37:02;;;;;;;44.45;42.15;;;;;;;21.28;54.58;100656.56;5052554;28;20100;-71
2022/09/14 02:39:58;;;;;;;46.22;43.50;;;;;;;21.25;54.22;100655.25;5050840;28;20025;-72
2022/09/14 02:42:37;;;;;;;45.38;42.88;;;;;;;21.23;54.50;100646.50;5034361;28;20159;-71
2022/09/14 02:45:27;;;;;;;46.90;44.47;;;;;;;21.21;54.44;100636.97;5036114;28;20040;-72
2022/09/14 02:48:04;;;;;;;47.75;45.20;;;;;;;21.19;54.24;100634.53;5037166;28;20546;-72
2022/09/14 02:51:02;;;;;;;44.67;42.55;;;;;;;21.18;54.65;100630.16;5036096;28;20136;-71
2022/09/14 02:53:58;;;;;;;43.65;41.25;;;;;;;21.15;54.61;100637.09;5035290;28;20041;-71
2022/09/14 02:56:25;;;;;;;46.55;44.15;;;;;;;21.13;54.62;100633.84;5050818;28;20023;-73
2022/09/14 02:58:50;;;;;;;45.05;42.85;;;;;;;21.12;54.24;100634.19;5048317;28;20038;-72
2022/09/14 03:01:20;;;;;;;46.83;44.22;;;;;;;21.11;54.45;100625.13;5032102;28;20034;-71
2022/09/14 03:03:45;;;;;;;45.85;43.45;;;;;;;21.10;54.65;100625.44;5046973;28;20477;-73
2022/09/14 03:06:11;;;;;;;44.85;42.70;;;;;;;21.08;54.67;100623.00;5033861;28;20029;-79
2022/09/14 03:08:37;;;;;;;44.63;42.15;;;;;;;21.08;54.33;100622.22;5046116;28;20513;-73
2022/09/14 03:11:04;;;;;;;43.67;41.47;;;;;;;21.07;54.82;100623.34;5034004;28;20396;-74
2022/09/14 03:13:30;;;;;;;47.13;44.60;;;;;;;21.05;54.55;100620.91;5031737;28;20037;-74
2022/09/14 03:15:55;;;;;;;46.78;44.22;;;;;;;21.03;54.41;100612.16;5047193;28;20037;-73
2022/09/14 03:18:20;;;;;;;44.55;42.13;;;;;;;21.02;54.70;100632.53;5043765;28;20037;-73
2022/09/14 03:20:46;;;;;;;44.47;41.97;;;;;;;21.01;54.18;100619.91;5050451;28;20040;-73
2022/09/14 03:23:12;;;;;;;42.10;40.08;;;;;;;21.00;54.67;100617.50;5050384;28;20111;-81
2022/09/14 03:25:40;;;;;;;44.67;42.42;;;;;;;20.98;54.78;100615.06;5033583;28;20047;-74
2022/09/14 03:28:06;;;;;;;45.25;42.92;;;;;;;20.97;54.81;100607.94;5050661;28;20045;-72
2022/09/14 03:30:33;;;;;;;44.03;41.72;;;;;;;20.95;54.27;100607.44;5034876;28;20088;-73
2022/09/14 03:32:59;;;;;;;42.38;40.28;;;;;;;20.93;54.41;100605.00;5048553;28;20120;-73
2022/09/14 03:35:24;;;;;;;45.60;43.03;;;;;;;20.92;54.64;100597.09;5049387;28;20032;-73
2022/09/14 03:37:50;;;;;;;44.70;42.20;;;;;;;20.91;54.72;100600.97;5050279;28;20048;-75
2022/09/14 03:40:16;;;;;;;46.90;44.38;;;;;;;20.88;54.71;100594.16;5044063;28;20559;-73
2022/09/14 03:42:47;;;;;;;43.33;40.85;;;;;;;20.87;54.53;100594.50;5064051;28;20037;-75
2022/09/14 03:45:14;;;;;;;44.05;41.65;;;;;;;20.85;54.25;100588.50;5031304;28;20033;-74
2022/09/14 03:47:41;;;;;;;45.58;43.17;;;;;;;20.83;54.75;100588.00;5040594;28;20029;-72
2022/09/14 03:50:08;;;;;;;42.60;40.35;;;;;;;20.82;54.66;100591.88;5032086;28;20037;-75
2022/09/14 03:52:35;;;;;;;44.65;42.33;;;;;;;20.80;54.57;100588.66;5045137;28;20119;-73
2022/09/14 03:55:00;;;;;;;44.72;42.33;;;;;;;20.78;54.19;100588.16;5031798;28;20053;-73
2022/09/14 03:57:26;;;;;;;46.95;44.45;;;;;;;20.77;54.06;100589.28;5037762;28;20098;-73
2022/09/14 03:59:51;;;;;;;43.92;41.65;;;;;;;20.74;54.49;100575.06;5032730;28;20033;-76
2022/09/14 04:02:17;;;;;;;42.90;40.60;;;;;;;20.72;54.19;100582.78;5048473;28;20049;-76
2022/09/14 04:04:42;;;;;;;43.28;41.03;;;;;;;20.70;54.38;100576.81;5050078;28;20110;-73
2022/09/14 04:07:07;;;;;;;43.13;40.78;;;;;;;20.69;54.31;100577.94;5049095;28;20033;-73
2022/09/14 04:09:33;;;;;;;43.17;40.83;;;;;;;20.67;54.26;100576.63;5046190;28;20458;-72
2022/09/14 04:11:59;;;;;;;43.97;41.88;;;;;;;20.66;54.11;100580.47;5046573;28;20040;-73
2022/09/14 04:14:25;;;;;;;43.05;40.65;;;;;;;20.64;54.48;100569.84;5050863;28;20031;-73
2022/09/14 04:16:50;;;;;;;42.17;39.78;;;;;;;20.63;54.29;100567.41;5047419;28;20041;-74
2022/09/14 04:19:16;;;;;;;43.92;41.63;;;;;;;20.62;54.24;100574.03;5033483;28;20079;-73
2022/09/14 04:21:41;;;;;;;43.00;40.70;;;;;;;20.59;54.05;100575.47;5049394;28;20385;-74
2022/09/14 04:24:10;;;;;;;45.03;42.65;;;;;;;20.57;54.34;100569.47;5049593;28;20033;-73
2022/09/14 04:26:36;;;;;;;41.53;39.42;;;;;;;20.55;54.13;100558.00;5049258;28;20039;-75
2022/09/14 04:29:02;;;;;;;42.08;39.78;;;;;;;20.54;54.04;100561.84;5046806;28;20127;-73
2022/09/14 04:31:28;;;;;;;42.28;39.90;;;;;;;20.53;54.13;100557.47;5043401;28;20090;-73
2022/09/14 04:33:55;;;;;;;44.90;42.35;;;;;;;20.50;54.32;100552.59;5055694;28;20032;-73
2022/09/14 04:36:22;;;;;;;42.72;40.53;;;;;;;20.50;54.23;100553.41;5050426;28;20461;-77
2022/09/14 04:38:52;;;;;;;43.00;40.83;;;;;;;20.47;54.13;100543.06;5044815;28;20119;-73
2022/09/14 04:41:19;;;;;;;44.50;42.17;;;;;;;20.46;53.96;100538.72;5036518;28;20378;-75
2022/09/14 04:43:46;;;;;;;41.72;39.58;;;;;;;20.44;53.95;100542.91;5049238;28;20029;-72
2022/09/14 04:46:20;;;;;;;43.83;41.10;;;;;;;20.42;54.32;100540.47;5048706;28;20045;-73
2022/09/14 04:48:47;;;;;;;45.30;42.80;;;;;;;20.42;54.04;100550.63;5050611;28;20462;-72
2022/09/14 04:51:32;;;;;;;44.50;42.03;;;;;;;20.40;54.06;100553.69;5049487;28;20036;-74
2022/09/14 04:53:59;;;;;;;41.60;39.30;;;;;;;20.38;54.14;100552.38;5043974;28;20112;-72
2022/09/14 04:56:26;;;;;;;43.53;41.03;;;;;;;20.37;54.21;100548.81;5039476;28;20376;-72
2022/09/14 04:58:54;;;;;;;44.22;41.97;;;;;;;20.35;54.37;100544.78;5047927;28;20035;-71
2022/09/14 05:01:22;;;;;;;41.90;39.60;;;;;;;20.33;54.46;100542.34;5041445;28;20083;-71
2022/09/14 05:03:48;;;;;;;41.10;39.00;;;;;;;20.33;54.31;100539.59;5049806;28;20543;-72
2022/09/14 05:06:19;;;;;;;41.60;39.05;;;;;;;20.31;54.08;100539.13;5052928;28;20029;-72
2022/09/14 05:08:46;;;;;;;40.67;38.67;;;;;;;20.30;54.40;100541.03;5054147;28;20043;-73
2022/09/14 05:11:14;;;;;;;42.50;40.20;;;;;;;20.29;54.20;100544.09;5048109;28;20041;-73
2022/09/14 05:13:40;;;;;;;43.10;40.70;;;;;;;20.27;54.35;100546.34;5049109;28;20481;-73
2022/09/14 05:16:14;;;;;;;43.33;41.03;;;;;;;20.26;54.37;100539.22;5051951;28;20029;-73
2022/09/14 05:18:40;;;;;;;43.85;41.38;;;;;;;20.24;54.58;100541.47;5038993;28;20549;-71
2022/09/14 05:21:07;;;;;;;39.95;37.92;;;;;;;20.23;54.29;100543.38;5034247;28;20100;-73
2022/09/14 05:23:33;;;;;;;42.67;40.40;;;;;;;20.22;54.19;100541.78;5038455;28;20051;-72
2022/09/14 05:25:59;;;;;;;42.58;40.03;;;;;;;20.20;54.50;100546.75;5053248;28;20417;-72
2022/09/14 05:28:25;;;;;;;42.10;39.90;;;;;;;20.19;54.07;100544.34;5050475;28;20073;-74
2022/09/14 05:30:51;;;;;;;42.15;40.05;;;;;;;20.18;54.28;100543.53;5038320;28;20041;-72
2022/09/14 05:33:17;;;;;;;42.65;40.15;;;;;;;20.16;54.44;100548.53;5036001;28;20470;-71
2022/09/14 05:35:42;;;;;;;44.38;41.72;;;;;;;20.14;54.43;100548.03;5034604;28;20453;-72
2022/09/14 05:38:07;;;;;;;40.90;38.70;;;;;;;20.14;54.49;100556.25;5053454;28;20460;-74
2022/09/14 05:40:33;;;;;;;42.75;40.35;;;;;;;20.12;54.30;100550.25;5030668;28;20037;-71
2022/09/14 05:42:58;;;;;;;42.13;40.03;;;;;;;20.12;54.50;100555.75;5050334;28;20035;-73
2022/09/14 05:45:23;;;;;;;44.08;41.30;;;;;;;20.11;54.45;100556.88;5045381;28;20571;-73
2022/09/14 05:47:49;;;;;;;43.15;40.85;;;;;;;20.09;54.73;100561.84;5049100;28;20045;-72
2022/09/14 05:50:14;;;;;;;41.28;38.97;;;;;;;20.08;54.36;100558.31;5049759;28;20132;-72
2022/09/14 05:52:39;;;;;;;42.75;40.50;;;;;;;20.08;54.91;100562.97;5049637;28;20029;-73
2022/09/14 05:55:06;;;;;;;44.50;42.30;;;;;;;20.06;54.97;100562.50;5049467;28;20033;-75
2022/09/14 05:57:31;;;;;;;41.72;39.50;;;;;;;20.05;54.85;100563.59;5050733;28;20508;-72
2022/09/14 05:59:57;;;;;;;42.78;40.45;;;;;;;20.04;54.64;100562.78;5052358;28;20033;-74
2022/09/14 06:02:22;;;;;;;42.70;40.22;;;;;;;20.03;54.90;100558.44;5047467;28;20088;-73
2022/09/14 06:04:47;;;;;;;41.05;38.72;;;;;;;20.01;54.54;100557.94;5047505;28;20037;-74
2022/09/14 06:07:13;;;;;;;42.90;40.70;;;;;;;20.01;54.93;100563.41;5049974;28;20052;-80
2022/09/14 06:09:38;;;;;;;43.20;40.90;;;;;;;20.00;55.01;100559.03;5052357;28;20030;-74
2022/09/14 06:12:04;;;;;;;41.35;39.15;;;;;;;19.99;54.66;100560.16;5035921;28;20078;-76
2022/09/14 06:14:29;;;;;;;41.88;39.58;;;;;;;19.98;54.56;100549.50;5048087;28;20040;-74
2022/09/14 06:16:54;;;;;;;40.75;38.50;;;;;;;19.97;54.44;100554.19;5029934;28;20158;-73
2022/09/14 06:19:20;;;;;;;42.95;40.53;;;;;;;19.95;54.82;100553.66;5046566;28;20397;-74
2022/09/14 06:21:45;;;;;;;43.92;41.30;;;;;;;19.95;54.79;100550.13;5049631;28;20040;-73
2022/09/14 06:24:11;;;;;;;43.83;41.53;;;;;;;19.94;54.65;100554.81;5044431;28;20038;-73
2022/09/14 06:26:38;;;;;;;41.17;39.00;;;;;;;19.94;54.68;100554.00;5049027;28;20072;-74
2022/09/14 06:29:03;;;;;;;42.05;39.53;;;;;;;19.93;55.22;100549.63;5050410;28;20035;-74
2022/09/14 06:31:29;;;;;;;39.67;37.72;;;;;;;19.91;54.90;100546.38;5044585;28;20036;-77
2022/09/14 06:33:54;;;;;;;42.03;39.72;;;;;;;19.89;54.96;100541.22;5047104;28;20042;-73
2022/09/14 06:36:22;;;;;;;41.78;39.53;;;;;;;19.89;55.38;100541.22;5050203;28;20037;-74
2022/09/14 06:38:48;;;;;;;42.33;39.80;;;;;;;19.87;55.18;100538.78;5045702;28;20469;-74
2022/09/14 06:41:27;;;;;;;40.90;38.75;;;;;;;19.86;55.00;100534.44;5049630;28;20112;-77
2022/09/14 06:43:55;;;;;;;40.33;37.95;;;;;;;19.85;55.11;100531.97;5048936;28;20090;-72
2022/09/14 06:46:23;;;;;;;41.03;38.83;;;;;;;19.85;55.47;100531.97;5048803;28;20041;-73
2022/09/14 06:49:01;;;;;;;40.47;38.22;;;;;;;19.83;55.41;100524.09;5048254;28;20297;-72
2022/09/14 06:51:35;;;;;;;40.90;38.83;;;;;;;19.82;55.86;100527.94;5050663;28;20029;-71
2022/09/14 06:54:02;;;;;;;40.58;38.28;;;;;;;19.79;55.29;100523.09;5046946;28;20178;-75
2022/09/14 06:56:30;;;;;;;40.90;38.70;;;;;;;19.78;55.63;100526.94;5050037;28;20108;-73
2022/09/14 06:58:57;;;;;;;41.15;39.03;;;;;;;19.77;55.57;100522.56;5045706;28;20473;-73
2022/09/14 07:01:24;;;;;;;40.85;38.85;;;;;;;19.77;55.45;100521.78;5049634;28;20064;-74
2022/09/14 07:03:51;;;;;;;43.30;40.75;;;;;;;19.76;55.93;100515.47;5047738;28;20044;-74
2022/09/14 07:06:19;;;;;;;42.08;39.70;;;;;;;19.75;55.50;100513.84;5049387;28;20036;-72
2022/09/14 07:08:45;;;;;;;;;;;;;;;19.75;55.66;100518.53;5047622;28;20469;-70
2022/09/14 07:11:13;;;;;;;39.30;37.20;;;;;;;19.72;55.56;100519.94;5047967;28;19924;-70
2022/09/14 07:13:38;;;;;;;41.83;39.70;;;;;;;19.71;56.11;100514.81;5045193;28;20476;-70
2022/09/14 07:16:04;;;;;;;42.03;39.70;;;;;;;19.71;55.93;100518.34;5045498;28;20037;-70
2022/09/14 07:18:34;;;;;;;39.80;37.80;;;;;;;19.69;56.08;100523.31;5046327;28;20040;-70
2022/09/14 07:21:05;;;;;;;39.38;37.47;;;;;;;19.69;56.29;100519.78;5044930;28;20657;-70
2022/09/14 07:23:30;;;;;;;41.58;39.30;;;;;;;19.67;56.29;100512.66;5041921;28;20049;-72
2022/09/14 07:26:04;;;;;;;43.08;40.72;;;;;;;19.66;55.92;100510.22;5046494;28;20033;-69
2022/09/14 07:28:30;;;;;;;39.70;37.35;;;;;;;19.66;56.12;100511.00;5046290;28;20053;-69
2022/09/14 07:30:55;;;;;;;41.38;39.15;;;;;;;19.64;55.97;100515.19;5046444;28;20484;-70
2022/09/14 07:33:21;;;;;;;42.28;39.92;;;;;;;19.63;56.33;100508.06;5040114;28;20034;-71
2022/09/14 07:35:46;;;;;;;42.63;40.40;;;;;;;19.62;56.74;100511.94;5045552;28;20044;-70
2022/09/14 07:38:11;;;;;;;40.55;38.35;;;;;;;19.61;56.61;100513.06;5042929;28;20124;-70
2022/09/14 07:40:37;;;;;;;39.47;37.40;;;;;;;19.60;56.48;100514.16;5046125;28;20044;-70
2022/09/14 07:43:02;;;;;;;40.13;37.88;;;;;;;19.59;56.33;100509.81;5046954;28;20041;-70
2022/09/14 07:45:28;;;;;;;40.22;38.08;;;;;;;19.57;56.57;100512.06;5047160;28;20424;-70
2022/09/14 07:47:55;;;;;;;39.75;37.45;;;;;;;19.56;56.88;100514.00;5041118;28;20037;-69
2022/09/14 07:50:20;;;;;;;42.08;39.78;;;;;;;19.56;56.38;100514.00;5047200;28;20500;-70
2022/09/14 07:52:49;;;;;;;40.55;38.55;;;;;;;19.55;56.83;100517.03;5046765;28;20041;-73
2022/09/14 07:55:15;;;;;;;40.35;38.08;;;;;;;19.52;56.76;100507.50;5042182;28;20078;-69
2022/09/14 07:57:41;;;;;;;41.42;39.08;;;;;;;19.51;56.66;100511.38;5046939;28;20041;-69
2022/09/14 08:00:07;;;;;;;42.58;40.42;;;;;;;19.51;56.46;100516.03;5045403;28;20483;-75
2022/09/14 08:02:33;;;;;;;39.35;37.15;;;;;;;19.50;56.71;100515.22;5044582;28;20032;-73
2022/09/14 08:04:58;;;;;;;40.00;37.50;;;;;;;19.50;57.14;100519.88;5043432;28;20033;-70
2022/09/14 08:07:24;;;;;;;41.13;38.53;;;;;;;19.48;56.70;100506.50;5045709;28;20025;-71
2022/09/14 08:09:49;;;;;;;39.85;37.40;;;;;;;19.48;57.04;100508.41;5046654;28;20235;-70
2022/09/14 08:12:15;;;;;;;40.08;37.92;;;;;;;19.45;56.74;100518.91;5043886;28;20126;-72
2022/09/14 08:14:41;;;;;;;40.85;38.72;;;;;;;19.44;56.62;100516.44;5045169;28;20056;-75
2022/09/14 08:17:07;;;;;;;40.92;38.75;;;;;;;19.44;56.78;100513.72;5044383;28;20044;-72
2022/09/14 08:19:32;;;;;;;39.50;37.40;;;;;;;19.42;57.00;100514.00;5043958;28;20037;-70
2022/09/14 08:21:58;;;;;;;39.60;37.25;;;;;;;19.42;56.85;100505.00;5044247;28;20128;-70
2022/09/14 08:24:23;;;;;;;39.00;37.00;;;;;;;19.41;56.70;100508.84;5045979;28;20435;-71
2022/09/14 08:26:49;;;;;;;41.05;38.83;;;;;;;19.41;57.07;100509.66;5044499;28;20124;-71
2022/09/14 08:29:16;;;;;;;43.28;40.88;;;;;;;19.40;57.48;100510.78;5040651;28;20029;-70
2022/09/14 08:31:43;;;;;;;40.28;38.17;;;;;;;19.39;57.33;100505.59;5042834;28;20037;-69
2022/09/14 08:34:08;;;;;;;41.20;38.95;;;;;;;19.38;57.34;100513.03;5045596;28;20033;-73
2022/09/14 08:36:38;;;;;;;40.45;37.97;;;;;;;19.37;57.68;100511.38;5045985;28;20432;-70
2022/09/14 08:39:07;;;;;;;40.60;38.45;;;;;;;19.36;57.21;100514.44;5047440;28;20039;-72
2022/09/14 08:41:42;;;;;;;40.63;38.42;;;;;;;19.34;57.50;100509.25;5049435;28;20088;-71
2022/09/14 08:44:28;;;;;;;40.97;38.50;;;;;;;19.34;57.11;100517.47;5047095;28;20036;-82
2022/09/14 08:47:03;;;;;;;40.75;38.25;;;;;;;19.32;57.46;100506.00;5048869;28;20028;-72
2022/09/14 08:49:50;;;;;;;42.17;39.80;;;;;;;19.33;57.50;100512.31;5046202;28;20464;-72
2022/09/14 08:52:24;;;;;;;40.70;38.50;;;;;;;19.31;57.35;100515.34;5045896;28;20037;-72
2022/09/14 08:54:54;;;;;;;40.15;37.97;;;;;;;19.29;57.50;100511.31;5046803;28;20193;-73
2022/09/14 08:57:44;;;;;;;40.63;38.42;;;;;;;19.29;57.47;100523.06;5051460;28;20032;-72
2022/09/14 09:00:15;;;;;;;39.53;37.47;;;;;;;19.28;57.57;100526.09;5046901;28;20060;-72
2022/09/14 09:02:58;;;;;;;41.90;39.28;;;;;;;19.27;57.87;100525.28;5047011;28;20037;-71
2022/09/14 09:05:29;;;;;;;41.05;38.65;;;;;;;19.27;57.62;100525.28;5046652;28;20064;-74
2022/09/14 09:08:14;;;;;;;40.88;38.35;;;;;;;19.27;57.88;100528.03;5049547;28;20021;-71
2022/09/14 09:10:40;;;;;;;41.40;39.25;;;;;;;19.26;57.86;100526.41;5048548;28;20114;-72
2022/09/14 09:13:11;;;;;;;41.55;39.20;;;;;;;19.25;58.08;100516.56;5031722;28;20037;-72
2022/09/14 09:15:47;;;;;;;41.45;39.22;;;;;;;19.25;57.86;100516.56;5051174;28;20033;-72
2022/09/14 09:18:19;;;;;;;42.92;40.53;;;;;;;19.24;57.67;100509.47;5048035;28;20442;-72
2022/09/14 09:20:50;;;;;;;41.83;39.65;;;;;;;19.24;57.68;100514.97;5045768;28;20037;-72
2022/09/14 09:23:22;;;;;;;41.40;38.90;;;;;;;19.23;57.55;100510.63;5047635;28;20037;-72
2022/09/14 09:25:51;;;;;;;42.00;39.22;;;;;;;19.23;57.84;100510.63;5046887;28;20037;-71
2022/09/14 09:28:17;;;;;;;40.67;38.25;;;;;;;19.22;58.07;100508.97;5049224;28;20516;-71
2022/09/14 09:30:44;;;;;;;40.83;38.63;;;;;;;19.22;57.86;100517.19;5045680;28;20086;-73
2022/09/14 09:33:28;;;;;;;40.47;38.17;;;;;;;19.21;58.42;100513.66;5046115;28;20059;-72
2022/09/14 09:35:54;;;;;;;41.08;38.72;;;;;;;19.19;58.25;100507.66;5047291;28;20497;-72
2022/09/14 09:38:24;;;;;;;39.80;37.60;;;;;;;19.20;58.17;100513.94;5050648;28;20039;-73
2022/09/14 09:40:51;;;;;;;40.53;38.30;;;;;;;19.19;58.12;100515.06;5045295;28;20029;-72
2022/09/14 09:43:19;;;;;;;41.03;38.42;;;;;;;19.19;58.44;100512.34;5045468;28;20479;-71
2022/09/14 09:45:48;;;;;;;42.33;39.92;;;;;;;19.19;58.32;100506.84;5050339;28;20095;-72
2022/09/14 09:48:16;;;;;;;42.20;39.67;;;;;;;19.18;58.74;100514.25;5043797;28;20457;-72
2022/09/14 09:50:54;;;;;;;40.97;38.55;;;;;;;19.18;58.04;100511.53;5046023;28;20040;-71
2022/09/14 09:53:21;;;;;;;39.50;37.30;;;;;;;19.16;58.09;100519.22;5045639;28;20032;-75
2022/09/14 09:55:48;;;;;;;39.80;37.53;;;;;;;19.17;58.54;100518.09;5049626;28;20637;-71
2022/09/14 09:58:26;;;;;;;41.15;38.85;;;;;;;19.17;58.45;100514.56;5044433;28;20112;-73
2022/09/14 10:01:00;;;;;;;39.53;37.25;;;;;;;19.16;58.27;100519.22;5043906;28;20045;-71
2022/09/14 10:03:28;;;;;;;42.63;39.90;;;;;;;19.16;58.17;100518.44;5044272;28;20037;-71
2022/09/14 10:06:08;;;;;;;;;;;;;;;19.15;58.53;100522.25;5048393;28;20048;-71
2022/09/14 10:08:41;;;;;;;37.65;35.65;;;;;;;19.14;58.29;100526.13;5046560;28;19916;-71
2022/09/14 10:11:28;;;;;;;39.40;37.30;;;;;;;19.13;58.15;100521.78;5048361;28;20040;-76
2022/09/14 10:13:54;;;;;;;39.60;37.38;;;;;;;19.14;58.40;100523.38;5047933;28;20029;-72
2022/09/14 10:16:20;;;;;;;40.05;37.55;;;;;;;19.13;58.36;100517.09;5043674;28;20079;-73
2022/09/14 10:18:50;;;;;;;39.72;37.45;;;;;;;19.13;58.36;100519.03;5029640;28;20076;-70
2022/09/14 10:21:17;;;;;;;42.35;39.70;;;;;;;19.12;58.60;100512.72;5047073;28;20044;-71
2022/09/14 10:23:43;;;;;;;41.83;39.38;;;;;;;19.12;58.43;100504.53;5046111;28;20060;-71
2022/09/14 10:26:12;;;;;;;41.28;38.83;;;;;;;19.12;58.47;100511.94;5046616;28;20057;-73
2022/09/14 10:28:48;;;;;;;39.65;37.50;;;;;;;19.13;58.81;100519.84;5042371;28;20469;-71
2022/09/14 10:31:19;;;;;;;39.40;37.30;;;;;;;19.12;58.67;100515.47;5046556;28;20041;-72
2022/09/14 10:33:46;;;;;;;39.50;37.30;;;;;;;19.11;58.50;100516.59;5046920;28;20032;-71
2022/09/14 10:36:15;;;;;;;41.38;39.00;;;;;;;19.12;59.04;100512.72;5048092;28;20025;-70
2022/09/14 10:38:54;;;;;;;38.65;36.53;;;;;;;19.13;58.42;100514.38;5045608;28;20029;-70
2022/09/14 10:41:26;;;;;;;39.25;37.05;;;;;;;19.12;58.68;100517.41;5047235;28;20124;-71
2022/09/14 10:44:06;;;;;;;40.10;37.90;;;;;;;19.12;58.38;100506.44;5046667;28;20082;-71
2022/09/14 10:47:01;;;;;;;39.47;37.17;;;;;;;19.12;58.52;100498.25;5044596;28;20033;-71
2022/09/14 10:49:38;;;;;;;39.17;36.85;;;;;;;19.11;58.64;100499.38;4975011;28;20046;-72
2022/09/14 10:52:12;;;;;;;40.37;38.17;;;;;;;19.12;58.63;100506.44;5043973;28;20025;-71
2022/09/14 10:55:15;;;;;;;43.42;40.97;;;;;;;19.11;58.56;100508.38;5043065;28;20477;-71
2022/09/14 10:58:19;;;;;;;39.72;37.45;;;;;;;19.11;58.70;100508.38;5044904;28;20025;-73
2022/09/14 11:00:56;;;;;;;38.90;36.83;;;;;;;19.11;58.30;100513.06;5043815;28;20017;-72
2022/09/14 11:03:35;;;;;;;40.90;38.45;;;;;;;19.10;58.52;100500.47;5046648;28;20477;-75
2022/09/14 11:06:14;;;;;;;42.05;39.45;;;;;;;19.10;59.05;100503.19;5043378;28;20037;-72
2022/09/14 11:08:58;;;;;;;38.05;35.55;;;;;;;19.11;58.80;100504.84;5048047;28;20112;-72
2022/09/14 11:11:40;;;;;;;40.83;38.60;;;;;;;19.11;58.77;100504.84;5039989;28;20143;-72
2022/09/14 11:14:30;;;;;;;39.65;37.33;;;;;;;19.10;59.16;100501.31;5047233;28;20016;-72
2022/09/14 11:17:11;;;;;;;40.35;38.05;;;;;;;19.11;58.88;100500.16;5045546;28;20048;-73
2022/09/14 11:19:42;;;;;;;39.08;36.45;;;;;;;19.10;58.58;100498.56;5045931;28;20029;-72
2022/09/14 11:22:25;;;;;;;41.40;38.92;;;;;;;19.11;59.04;100497.44;5043897;28;20048;-71
2022/09/14 11:25:02;;;;;;;39.75;37.63;;;;;;;19.10;59.07;100493.09;5047615;28;20552;-71
2022/09/14 11:27:56;;;;;;;40.08;37.80;;;;;;;19.11;58.82;100493.88;5046737;28;20041;-73